Time;durP1;ratioP1;P1;durP2;ratioP2;P2;SDS_P1;SDS_P2;PMS_P1;PMS_P2;Temp;Humidity;BMP_temperature;BMP_pressure;BME280_temperature;BME280_humidity;BME280_pressure;Samples;Min_cycle;Max_cycle;Signal;HPM_P1;HPM_P2
2023/12/27 00:02:40;;;;;;;109.35;99.50;;;9.90;86.80;;;;;;12657414;28;20356;-75
2023/12/27 00:08:41;;;;;;;89.20;80.78;;;10.10;86.80;;;;;;12657145;28;20039;-75
2023/12/27 00:14:43;;;;;;;97.40;88.45;;;10.20;86.80;;;;;;12656813;28;20047;-75
2023/12/27 00:20:47;;;;;;;88.78;81.03;;;10.20;86.60;;;;;;12638642;28;20028;-75
2023/12/27 00:26:48;;;;;;;108.63;99.13;;;10.20;86.50;;;;;;12621954;28;20044;-75
2023/12/27 00:32:50;;;;;;;80.80;72.13;;;10.10;86.60;;;;;;12638539;28;20051;-74
2023/12/27 00:38:51;;;;;;;112.13;103.63;;;10.10;86.80;;;;;;12655753;28;20384;-75
2023/12/27 00:44:53;;;;;;;95.60;88.00;;;10.20;86.80;;;;;;12655438;28;20028;-75
2023/12/27 00:50:54;;;;;;;112.88;104.45;;;10.10;86.70;;;;;;12655244;28;20039;-74
2023/12/27 00:56:56;;;;;;;98.65;91.55;;;9.90;86.90;;;;;;12635767;28;20044;-74
2023/12/27 01:02:58;;;;;;;80.22;73.72;;;9.90;86.90;;;;;;12636720;28;20036;-75
2023/12/27 01:08:59;;;;;;;74.03;68.18;;;9.80;86.90;;;;;;12636585;28;20039;-74
2023/12/27 01:15:01;;;;;;;64.88;58.58;;;9.70;86.90;;;;;;12636320;28;20463;-75
2023/12/27 01:21:02;;;;;;;63.78;57.95;;;9.70;87.10;;;;;;12619634;28;20036;-75
2023/12/27 01:27:04;;;;;;;61.25;55.47;;;9.70;87.00;;;;;;12654103;28;20047;-74
2023/12/27 01:33:06;;;;;;;82.45;76.13;;;9.70;87.20;;;;;;12635828;28;20032;-71
2023/12/27 01:39:08;;;;;;;81.13;73.78;;;9.80;87.00;;;;;;12653674;28;20028;-72
2023/12/27 01:45:09;;;;;;;90.88;83.35;;;9.90;86.90;;;;;;12635552;28;20044;-71
2023/12/27 01:51:14;;;;;;;78.85;71.95;;;10.00;86.80;;;;;;12653289;28;20043;-72
2023/12/27 01:57:16;;;;;;;75.43;69.22;;;10.00;86.70;;;;;;12635125;28;20032;-72
2023/12/27 02:03:18;;;;;;;72.82;66.18;;;10.00;86.60;;;;;;12618555;28;20043;-72
2023/12/27 02:09:20;;;;;;;83.60;76.43;;;9.80;86.80;;;;;;12642196;28;20028;-72
2023/12/27 02:15:21;;;;;;;54.28;49.55;;;9.80;86.90;;;;;;12627854;28;20039;-74
2023/12/27 02:21:25;;;;;;;63.47;57.53;;;9.80;86.80;;;;;;12644262;28;20043;-74
2023/12/27 02:27:27;;;;;;;65.78;59.63;;;9.60;86.90;;;;;;12644184;28;20038;-72
2023/12/27 02:33:29;;;;;;;62.53;56.92;;;9.60;87.00;;;;;;12643768;28;20032;-71
2023/12/27 02:39:31;;;;;;;91.97;84.70;;;9.70;87.00;;;;;;12643408;28;20448;-72
2023/12/27 02:45:32;;;;;;;61.63;55.50;;;9.60;87.10;;;;;;12626653;28;20036;-71
2023/12/27 02:51:35;;;;;;;70.15;63.83;;;9.70;87.20;;;;;;12643603;28;20036;-71
2023/12/27 02:57:37;;;;;;;60.78;55.33;;;9.80;86.90;;;;;;12660591;28;20032;-72
2023/12/27 03:03:39;;;;;;;68.68;62.85;;;9.70;86.90;;;;;;12642852;28;20043;-71
2023/12/27 03:09:40;;;;;;;63.33;58.13;;;9.50;87.10;;;;;;12625873;28;20344;-71
2023/12/27 03:15:42;;;;;;;55.55;50.22;;;9.40;87.20;;;;;;12641746;28;20575;-72
2023/12/27 03:21:44;;;;;;;64.75;59.05;;;9.50;87.30;;;;;;12658409;28;20040;-72
2023/12/27 03:27:45;;;;;;;67.82;61.67;;;9.60;87.10;;;;;;12659211;28;20036;-72
2023/12/27 03:33:47;;;;;;;58.85;52.97;;;9.50;87.20;;;;;;12640872;28;20356;-71
2023/12/27 03:39:50;;;;;;;57.38;51.67;;;9.50;87.10;;;;;;12658699;28;20352;-72
2023/12/27 03:45:54;;;;;;;72.28;65.95;;;9.60;87.00;;;;;;12640299;28;20039;-72
2023/12/27 03:51:55;;;;;;;78.28;71.28;;;9.50;87.00;;;;;;12640063;28;20047;-72
2023/12/27 03:57:57;;;;;;;63.50;57.35;;;9.70;86.90;;;;;;12657566;28;20039;-72
2023/12/27 04:03:58;;;;;;;57.85;52.15;;;9.70;86.90;;;;;;12639426;28;20036;-72
2023/12/27 04:10:00;;;;;;;63.75;58.83;;;9.70;86.70;;;;;;12639120;28;20035;-71
2023/12/27 04:16:02;;;;;;;74.72;68.80;;;9.50;86.60;;;;;;12638777;28;20444;-72
2023/12/27 04:22:04;;;;;;;65.97;59.92;;;9.20;86.80;;;;;;12656614;28;20024;-72
2023/12/27 04:28:06;;;;;;;80.25;73.50;;;9.00;86.80;;;;;;12638125;28;20043;-72
2023/12/27 04:34:08;;;;;;;59.33;54.42;;;8.90;86.90;;;;;;12637886;28;20024;-72
2023/12/27 04:40:11;;;;;;;63.22;57.80;;;8.70;87.10;;;;;;12621375;28;20039;-75
2023/12/27 04:46:13;;;;;;;53.90;48.90;;;9.00;87.20;;;;;;12620975;28;20039;-72
2023/12/27 04:52:15;;;;;;;69.88;64.65;;;9.00;87.00;;;;;;12637852;28;20055;-72
2023/12/27 04:58:16;;;;;;;93.25;85.68;;;9.00;87.20;;;;;;12654958;28;20027;-72
2023/12/27 05:04:18;;;;;;;72.35;66.90;;;9.30;87.20;;;;;;12636762;28;20042;-72
2023/12/27 05:10:20;;;;;;;66.80;61.00;;;9.50;86.60;;;;;;12654529;28;20039;-72
2023/12/27 05:16:22;;;;;;;59.40;53.78;;;9.50;86.70;;;;;;12619669;28;20044;-72
2023/12/27 05:22:23;;;;;;;58.85;53.70;;;9.40;86.60;;;;;;12654211;28;20023;-71
2023/12/27 05:28:25;;;;;;;85.93;78.47;;;9.40;86.70;;;;;;12636809;28;20025;-72
2023/12/27 05:34:27;;;;;;;80.07;73.38;;;9.50;87.10;;;;;;12653776;28;20024;-72
2023/12/27 05:40:28;;;;;;;77.35;70.75;;;10.00;86.60;;;;;;12636597;28;20032;-72
2023/12/27 05:46:34;;;;;;;66.78;60.75;;;10.10;86.10;;;;;;12664023;28;20024;-72
2023/12/27 05:52:38;;;;;;;102.38;95.03;;;10.20;85.90;;;;;;12646107;28;20054;-72
2023/12/27 05:58:39;;;;;;;86.90;80.72;;;10.50;85.70;;;;;;12663353;28;20031;-72
2023/12/27 06:04:41;;;;;;;105.55;98.43;;;10.60;85.40;;;;;;12663172;28;20039;-72
2023/12/27 06:10:42;;;;;;;99.90;93.07;;;10.70;85.50;;;;;;12663003;28;20032;-71
2023/12/27 06:16:44;;;;;;;97.78;91.32;;;10.90;85.60;;;;;;12662643;28;20523;-72
2023/12/27 06:22:46;;;;;;;93.50;87.72;;;10.90;85.30;;;;;;12662387;28;20028;-72
2023/12/27 06:28:48;;;;;;;100.65;93.85;;;10.60;85.60;;;;;;12662078;28;20039;-72
2023/12/27 06:34:49;;;;;;;121.72;114.80;;;10.70;86.00;;;;;;12661752;28;20032;-72
2023/12/27 06:40:51;;;;;;;99.97;93.88;;;10.90;85.60;;;;;;12661502;28;20035;-72
2023/12/27 06:46:53;;;;;;;101.07;94.15;;;10.70;85.40;;;;;;12661247;28;20031;-72
2023/12/27 06:52:55;;;;;;;90.15;84.15;;;10.80;86.00;;;;;;12660747;28;20036;-72
2023/12/27 06:58:57;;;;;;;79.38;73.85;;;10.90;85.80;;;;;;12634858;22;20056;-72
2023/12/27 07:04:58;;;;;;;62.45;57.78;;;10.60;85.50;;;;;;12610831;28;20043;-72
2023/12/27 07:11:01;;;;;;;71.53;66.75;;;10.20;85.90;;;;;;12611961;28;20449;-71
2023/12/27 07:17:04;;;;;;;79.78;74.65;;;10.20;86.50;;;;;;12608318;28;20037;-71
2023/12/27 07:23:32;;;;;;;77.70;71.40;;;10.20;85.90;;;;;;12608017;28;20036;-72
2023/12/27 07:29:37;;;;;;;71.78;66.45;;;10.40;86.10;;;;;;12607375;28;20036;-71
2023/12/27 07:35:40;;;;;;;83.55;78.10;;;10.60;85.40;;;;;;12608353;28;20033;-72
2023/12/27 07:42:00;;;;;;;79.57;74.18;;;10.50;85.80;;;;;;12607252;28;20460;-72
2023/12/27 07:48:57;;;;;;;85.10;79.50;;;10.60;85.30;;;;;;12608085;28;20025;-72
2023/12/27 07:54:58;;;;;;;77.72;72.78;;;10.30;86.00;;;;;;12607672;28;20032;-72
2023/12/27 08:01:01;;;;;;;83.53;77.28;;;10.70;85.80;;;;;;12607452;28;20032;-72
2023/12/27 08:07:03;;;;;;;98.78;92.70;;;10.70;85.10;;;;;;12606626;28;20037;-72
2023/12/27 08:13:08;;;;;;;112.63;106.35;;;10.80;85.40;;;;;;12605527;28;20032;-72
2023/12/27 08:19:11;;;;;;;105.65;99.43;;;10.90;85.00;;;;;;12606511;28;20029;-72
2023/12/27 08:25:15;;;;;;;78.60;73.72;;;10.90;85.90;;;;;;12604412;28;20468;-72
2023/12/27 08:31:18;;;;;;;86.03;80.20;;;11.00;85.70;;;;;;12605737;28;20048;-72
2023/12/27 08:37:22;;;;;;;73.78;68.70;;;11.00;86.00;;;;;;12636896;28;20029;-72
2023/12/27 08:43:29;;;;;;;94.35;87.88;;;11.10;85.60;;;;;;12605665;28;20037;-72
2023/12/27 08:49:31;;;;;;;88.10;81.80;;;10.80;86.00;;;;;;12605161;28;20032;-72
2023/12/27 08:55:32;;;;;;;77.50;71.93;;;11.00;86.40;;;;;;12603621;28;20460;-72
2023/12/27 09:01:34;;;;;;;47.63;43.42;;;11.20;86.70;;;;;;12604725;28;20326;-72
2023/12/27 09:07:36;;;;;;;35.97;32.58;;;11.50;86.10;;;;;;12604480;28;20453;-71
2023/12/27 09:13:38;;;;;;;49.42;45.35;;;11.50;85.60;;;;;;12604112;28;20028;-72
2023/12/27 09:19:40;;;;;;;40.53;36.70;;;11.20;86.00;;;;;;12601600;28;20028;-72
2023/12/27 09:25:44;;;;;;;37.88;34.40;;;11.50;86.60;;;;;;12599284;28;20445;-72
2023/12/27 09:31:45;;;;;;;41.67;38.40;;;11.50;85.90;;;;;;12608906;28;20028;-72
2023/12/27 09:37:47;;;;;;;48.10;44.35;;;11.20;86.20;;;;;;12603010;28;20453;-74
2023/12/27 09:43:53;;;;;;;30.88;27.77;;;11.20;86.60;;;;;;12603459;28;20036;-73
2023/12/27 09:49:59;;;;;;;31.70;28.92;;;11.60;86.80;;;;;;12602147;28;20033;-74
2023/12/27 09:56:03;;;;;;;28.70;25.83;;;11.80;86.40;;;;;;12603164;28;20373;-73
2023/12/27 10:02:11;;;;;;;28.42;25.50;;;12.00;86.10;;;;;;12603200;28;20028;-74
2023/12/27 10:08:20;;;;;;;27.30;23.95;;;12.00;86.00;;;;;;12601926;28;20032;-74
2023/12/27 10:14:24;;;;;;;42.33;39.15;;;11.70;85.80;;;;;;12602765;28;20033;-73
2023/12/27 10:20:43;;;;;;;25.38;22.75;;;11.60;86.90;;;;;;12602744;28;20035;-74
2023/12/27 10:26:45;;;;;;;55.47;51.88;;;11.80;86.60;;;;;;12603767;28;20036;-74
2023/12/27 10:33:00;;;;;;;34.88;31.48;;;11.70;86.70;;;;;;12611585;28;20033;-74
2023/12/27 10:39:04;;;;;;;27.40;24.55;;;11.90;87.00;;;;;;12611371;28;20032;-74
2023/12/27 10:45:06;;;;;;;27.83;25.02;;;12.10;86.60;;;;;;12611070;28;20123;-74
2023/12/27 10:51:09;;;;;;;29.42;26.33;;;12.00;86.70;;;;;;12610877;28;20028;-74
2023/12/27 10:57:24;;;;;;;31.85;26.17;;;12.20;86.60;;;;;;12592806;28;20040;-71
2023/12/27 11:03:29;;;;;;;30.58;26.63;;;12.10;86.20;;;;;;12609175;28;20029;-72
2023/12/27 11:09:32;;;;;;;28.92;25.95;;;11.90;86.90;;;;;;12608923;28;20037;-72
2023/12/27 11:15:44;;;;;;;28.77;25.73;;;11.80;87.00;;;;;;12608528;28;20040;-71
2023/12/27 11:21:47;;;;;;;31.75;28.35;;;11.90;87.00;;;;;;12591919;28;20361;-71
2023/12/27 11:27:49;;;;;;;28.92;25.85;;;12.00;87.30;;;;;;12609176;28;20032;-72
2023/12/27 11:33:52;;;;;;;29.88;25.40;;;12.30;86.90;;;;;;12619978;28;20043;-73
2023/12/27 11:40:18;;;;;;;29.92;26.85;;;12.20;86.70;;;;;;12657936;28;20020;-72
2023/12/27 11:46:30;;;;;;;29.88;26.75;;;12.10;86.90;;;;;;12658684;28;20440;-72
2023/12/27 11:52:35;;;;;;;25.83;23.15;;;12.20;87.10;;;;;;12658310;28;20028;-74
2023/12/27 11:58:36;;;;;;;33.55;29.65;;;12.20;87.10;;;;;;12639922;28;20051;-74
2023/12/27 12:05:00;;;;;;;30.67;27.50;;;12.30;87.00;;;;;;12657661;28;20314;-74
2023/12/27 12:11:12;;;;;;;32.40;29.20;;;12.50;86.80;;;;;;12658054;28;20441;-74
2023/12/27 12:17:14;;;;;;;36.80;27.75;;;12.40;87.20;;;;;;12656999;28;20428;-74
2023/12/27 12:23:16;;;;;;;28.10;25.08;;;12.50;86.70;;;;;;12656833;28;20054;-74
2023/12/27 12:29:20;;;;;;;24.95;22.30;;;12.30;86.90;;;;;;12656558;28;20447;-74
2023/12/27 12:35:22;;;;;;;31.73;26.52;;;12.50;87.30;;;;;;12656116;28;20035;-74
2023/12/27 12:41:23;;;;;;;31.20;24.38;;;12.40;87.00;;;;;;12655964;28;20020;-74
2023/12/27 12:47:25;;;;;;;26.67;23.88;;;12.40;87.30;;;;;;12655632;28;20036;-74
2023/12/27 12:53:27;;;;;;;26.98;23.02;;;12.70;87.10;;;;;;12655260;28;20031;-74
2023/12/27 12:59:29;;;;;;;33.88;24.42;;;12.90;86.80;;;;;;12654186;28;20055;-74
2023/12/27 13:05:31;;;;;;;27.52;24.55;;;13.00;86.80;;;;;;12654992;28;20024;-74
2023/12/27 13:11:34;;;;;;;24.15;21.63;;;13.20;86.50;;;;;;12654783;28;20042;-74
2023/12/27 13:17:35;;;;;;;32.90;24.55;;;13.20;86.40;;;;;;12654464;28;20039;-74
2023/12/27 13:23:38;;;;;;;25.60;22.90;;;13.30;86.40;;;;;;12653200;28;20036;-74
2023/12/27 13:29:39;;;;;;;26.08;23.30;;;13.10;86.20;;;;;;12654126;28;20059;-74
2023/12/27 13:35:41;;;;;;;25.33;22.70;;;13.20;86.80;;;;;;12654024;28;20444;-74
2023/12/27 13:41:43;;;;;;;28.15;25.25;;;13.20;86.60;;;;;;12653947;28;20448;-74
2023/12/27 13:47:45;;;;;;;28.30;25.13;;;13.40;86.80;;;;;;12652619;28;20047;-75
2023/12/27 13:53:46;;;;;;;30.20;26.90;;;13.50;86.40;;;;;;12654234;28;20032;-74
2023/12/27 13:59:48;;;;;;;31.58;28.17;;;13.70;86.30;;;;;;12653404;28;20032;-74
2023/12/27 14:05:50;;;;;;;30.75;25.73;;;13.80;86.10;;;;;;12661433;28;20460;-74
2023/12/27 14:11:52;;;;;;;31.23;27.98;;;13.70;86.10;;;;;;12663095;28;20059;-74
2023/12/27 14:17:54;;;;;;;29.50;26.15;;;13.70;86.10;;;;;;12663017;28;20035;-72
2023/12/27 14:23:57;;;;;;;30.75;27.55;;;13.70;86.20;;;;;;12661369;28;20061;-72
2023/12/27 14:29:58;;;;;;;25.42;22.70;;;13.70;86.10;;;;;;12661416;28;20035;-72
2023/12/27 14:36:01;;;;;;;30.05;26.90;;;13.30;86.10;;;;;;12661774;28;20039;-72
2023/12/27 14:42:04;;;;;;;26.35;23.80;;;12.90;86.50;;;;;;12662292;28;20326;-72
2023/12/27 14:48:06;;;;;;;31.05;25.70;;;12.70;87.00;;;;;;12660919;28;20032;-72
2023/12/27 14:54:08;;;;;;;32.03;26.80;;;12.60;87.10;;;;;;12661544;28;20455;-72
2023/12/27 15:00:10;;;;;;;36.53;32.50;;;12.40;87.20;;;;;;12667290;22;20385;-72
2023/12/27 15:06:12;;;;;;;31.30;27.98;;;12.50;87.50;;;;;;12642313;28;20036;-74
2023/12/27 15:12:14;;;;;;;31.58;28.40;;;12.90;87.20;;;;;;12659791;28;20032;-74
2023/12/27 15:18:17;;;;;;;37.55;33.55;;;12.70;86.80;;;;;;12640732;28;20043;-75
2023/12/27 15:24:19;;;;;;;34.30;29.35;;;12.70;87.30;;;;;;12641681;28;20459;-75
2023/12/27 15:30:21;;;;;;;34.15;30.75;;;13.00;86.70;;;;;;12659252;28;20040;-75
2023/12/27 15:36:23;;;;;;;34.20;30.58;;;12.80;86.60;;;;;;12659029;28;20040;-74
2023/12/27 15:42:25;;;;;;;38.55;33.28;;;12.90;86.70;;;;;;12640760;28;20032;-74
2023/12/27 15:48:29;;;;;;;38.45;34.55;;;13.10;86.30;;;;;;12624913;28;20415;-75
2023/12/27 15:54:30;;;;;;;33.22;29.65;;;13.20;85.90;;;;;;12639435;28;20044;-74
2023/12/27 16:00:32;;;;;;;41.17;36.15;;;13.20;85.70;;;;;;12657698;28;20032;-75
2023/12/27 16:06:35;;;;;;;34.67;31.23;;;13.00;85.70;;;;;;12658149;28;20433;-74
2023/12/27 16:12:36;;;;;;;38.40;34.55;;;13.00;85.60;;;;;;12657160;28;20032;-74
2023/12/27 16:18:38;;;;;;;46.72;37.53;;;12.80;85.60;;;;;;12638437;28;20356;-75
2023/12/27 16:24:40;;;;;;;41.42;36.65;;;12.80;85.90;;;;;;12637231;28;20040;-75
2023/12/27 16:30:42;;;;;;;42.85;38.30;;;12.70;85.60;;;;;;12638211;28;20032;-75
2023/12/27 16:36:44;;;;;;;45.67;39.17;;;12.70;86.10;;;;;;12656023;28;20028;-75
2023/12/27 16:42:50;;;;;;;42.58;38.25;;;12.80;85.80;;;;;;12655858;28;20024;-75
2023/12/27 16:48:52;;;;;;;41.25;37.30;;;12.90;85.40;;;;;;12655560;28;20460;-75
2023/12/27 16:54:53;;;;;;;40.75;36.55;;;12.90;85.40;;;;;;12655212;28;20425;-75
2023/12/27 17:00:55;;;;;;;40.38;36.05;;;12.80;85.40;;;;;;12637123;28;20067;-75
2023/12/27 17:06:57;;;;;;;40.88;36.60;;;12.80;85.50;;;;;;12620997;28;20036;-74
2023/12/27 17:12:59;;;;;;;40.92;36.90;;;12.60;85.70;;;;;;12636289;28;20475;-75
2023/12/27 17:19:02;;;;;;;36.30;32.55;;;12.50;85.80;;;;;;12654383;28;20039;-75
2023/12/27 17:25:07;;;;;;;40.60;36.17;;;12.60;85.80;;;;;;12654288;28;20028;-74
2023/12/27 17:31:09;;;;;;;45.15;32.45;;;12.50;85.70;;;;;;12636088;28;20463;-72
2023/12/27 17:37:12;;;;;;;36.15;32.33;;;12.60;85.60;;;;;;12634849;28;20035;-73
2023/12/27 17:43:14;;;;;;;40.28;34.90;;;12.50;85.50;;;;;;12635844;28;20345;-72
2023/12/27 17:49:16;;;;;;;40.97;36.00;;;12.60;85.40;;;;;;12653657;28;20036;-72
2023/12/27 17:55:18;;;;;;;41.67;37.25;;;12.70;85.50;;;;;;12618869;28;20051;-72
2023/12/27 18:01:20;;;;;;;42.42;37.95;;;12.70;85.50;;;;;;12653259;28;20044;-73
2023/12/27 18:07:22;;;;;;;42.53;38.17;;;12.50;85.40;;;;;;12653175;28;20035;-72
2023/12/27 18:13:23;;;;;;;47.70;42.83;;;12.30;85.80;;;;;;12635119;28;20032;-72
2023/12/27 18:19:25;;;;;;;60.17;48.42;;;12.20;86.10;;;;;;12650292;28;20455;-71
2023/12/27 18:25:27;;;;;;;56.60;51.15;;;12.10;85.90;;;;;;12652791;28;20037;-71
2023/12/27 18:31:29;;;;;;;54.50;49.15;;;12.00;86.30;;;;;;12652601;28;20032;-71
2023/12/27 18:37:30;;;;;;;56.97;50.35;;;11.90;86.30;;;;;;12652432;28;20325;-72
2023/12/27 18:43:32;;;;;;;70.05;62.65;;;12.00;86.50;;;;;;12634424;28;20024;-71
2023/12/27 18:49:34;;;;;;;64.82;58.55;;;12.20;86.20;;;;;;12638148;28;20436;-72
2023/12/27 18:55:36;;;;;;;54.28;48.95;;;12.00;86.20;;;;;;12642713;28;20051;-71
2023/12/27 19:01:37;;;;;;;85.13;77.97;;;11.80;85.90;;;;;;12661497;28;20437;-73
2023/12/27 19:07:39;;;;;;;67.65;61.17;;;11.70;86.50;;;;;;12660532;28;20027;-73
2023/12/27 19:13:40;;;;;;;84.55;77.28;;;11.70;86.40;;;;;;12660275;28;20329;-73
2023/12/27 19:19:42;;;;;;;72.35;65.82;;;11.80;86.50;;;;;;12641885;28;20036;-73
2023/12/27 19:25:44;;;;;;;58.55;52.95;;;12.00;86.30;;;;;;12641666;28;20329;-74
2023/12/27 19:31:45;;;;;;;66.82;60.58;;;11.90;86.20;;;;;;12659420;28;20036;-74
2023/12/27 19:37:47;;;;;;;71.22;65.05;;;11.90;86.20;;;;;;12659721;28;20032;-74
2023/12/27 19:43:49;;;;;;;61.42;55.00;;;12.00;86.00;;;;;;12640436;28;20036;-74
2023/12/27 19:49:51;;;;;;;72.25;65.25;;;11.90;86.10;;;;;;12640747;28;20444;-74
2023/12/27 19:55:52;;;;;;;75.40;69.82;;;11.80;86.10;;;;;;12657994;28;20043;-74
2023/12/27 20:01:54;;;;;;;96.47;89.50;;;11.70;86.20;;;;;;12666302;28;20043;-74
2023/12/27 20:07:56;;;;;;;84.57;77.82;;;11.50;86.50;;;;;;12708314;28;20034;-74
2023/12/27 20:13:57;;;;;;;96.95;90.75;;;11.70;86.60;;;;;;12708658;28;20027;-74
2023/12/27 20:19:59;;;;;;;97.53;90.07;;;11.70;86.30;;;;;;12689583;28;20035;-74
2023/12/27 20:26:01;;;;;;;71.43;65.55;;;11.80;86.40;;;;;;12707456;28;20031;-74
2023/12/27 20:32:05;;;;;;;83.70;77.28;;;11.80;86.30;;;;;;12688909;28;20039;-74
2023/12/27 20:38:07;;;;;;;57.47;52.38;;;11.70;86.30;;;;;;12706781;28;20031;-74
2023/12/27 20:44:09;;;;;;;79.43;73.70;;;11.70;86.30;;;;;;12688391;28;20028;-72
2023/12/27 20:50:10;;;;;;;72.72;67.10;;;11.70;86.40;;;;;;12706299;28;20031;-72
2023/12/27 20:56:12;;;;;;;90.60;84.55;;;11.70;86.30;;;;;;12705853;28;20036;-72
2023/12/27 21:02:14;;;;;;;93.72;87.53;;;11.70;86.30;;;;;;12687941;28;20045;-72
2023/12/27 21:08:15;;;;;;;85.80;80.00;;;11.60;86.30;;;;;;12705554;28;20042;-72
2023/12/27 21:14:17;;;;;;;73.72;68.00;;;11.50;86.40;;;;;;12705268;28;20038;-72
2023/12/27 21:20:20;;;;;;;79.35;72.85;;;11.70;86.30;;;;;;12705026;28;20321;-72
2023/12/27 21:26:25;;;;;;;68.50;63.10;;;11.60;86.30;;;;;;12704854;28;20027;-72
2023/12/27 21:32:27;;;;;;;88.50;81.45;;;11.70;86.30;;;;;;12686686;28;20032;-72
2023/12/27 21:38:29;;;;;;;99.00;92.18;;;11.70;86.20;;;;;;12669579;28;20356;-72
2023/12/27 21:44:32;;;;;;;91.13;84.65;;;11.70;86.30;;;;;;12704491;28;20042;-72
2023/12/27 21:50:34;;;;;;;103.75;96.30;;;11.70;86.20;;;;;;12704325;28;20027;-72
2023/12/27 21:56:36;;;;;;;108.57;100.78;;;11.50;86.20;;;;;;12685761;28;20051;-74
2023/12/27 22:02:38;;;;;;;104.43;97.10;;;11.30;86.50;;;;;;12704002;28;20034;-74
2023/12/27 22:08:40;;;;;;;120.18;112.03;;;11.50;86.80;;;;;;12703909;28;20031;-74
2023/12/27 22:14:41;;;;;;;104.13;96.88;;;11.40;86.60;;;;;;12685734;28;20054;-74
2023/12/27 22:20:43;;;;;;;138.05;127.43;;;11.50;86.60;;;;;;12703537;28;20408;-74
2023/12/27 22:26:45;;;;;;;131.55;122.43;;;11.40;86.10;;;;;;12711203;28;20028;-74
2023/12/27 22:32:46;;;;;;;133.57;124.20;;;11.30;86.50;;;;;;12713016;28;20031;-74
2023/12/27 22:38:49;;;;;;;115.90;108.13;;;11.40;86.70;;;;;;12712579;28;20031;-74
2023/12/27 22:44:51;;;;;;;126.80;117.88;;;11.50;86.60;;;;;;12712425;28;20318;-74
2023/12/27 22:50:53;;;;;;;107.82;100.70;;;11.50;86.30;;;;;;12713058;28;20028;-74
2023/12/27 22:56:55;;;;;;;111.55;104.60;;;11.20;86.50;;;;;;12687325;22;20063;-74
2023/12/27 23:02:56;;;;;;;93.90;87.25;;;11.20;86.70;;;;;;12610119;28;20037;-74
2023/12/27 23:08:59;;;;;;;97.88;90.93;;;11.00;86.80;;;;;;12593054;28;20039;-74
2023/12/27 23:15:01;;;;;;;87.32;80.80;;;11.00;86.80;;;;;;12592678;28;20040;-74
2023/12/27 23:21:02;;;;;;;118.20;110.60;;;11.00;86.90;;;;;;12610380;28;20028;-74
2023/12/27 23:27:04;;;;;;;111.32;104.38;;;11.00;87.00;;;;;;12601766;28;20056;-74
2023/12/27 23:33:06;;;;;;;106.47;99.43;;;11.20;86.80;;;;;;12609052;28;20370;-74
2023/12/27 23:39:08;;;;;;;127.32;119.65;;;11.30;86.60;;;;;;12608270;28;20037;-74
2023/12/27 23:45:10;;;;;;;107.93;100.90;;;11.30;86.50;;;;;;12609241;28;20032;-74
2023/12/27 23:51:56;;;;;;;112.95;104.97;;;11.30;86.40;;;;;;12574368;28;20032;-74
2023/12/27 23:57:58;;;;;;;109.13;101.97;;;11.30;86.40;;;;;;12590581;28;20051;-74
